KSJT/SJT METAR and TAF weather

Enter ICAO airport designator
Station Type Date Time Source
KSJT METAR 2021/04/17 01:51 UTC NOAA

KSJT 170151Z AUTO 01015KT 10SM OVC024 13/08 A2999 RMK AO2 SLP146 T01280078


Station Type Date Time Source
KSJT Decoded METAR 2021/04/17 01:51 UTC NOAA

MATHIS FIELD, TX, United States (KSJT) 31-21N 100-30W 581M
Apr 16, 2021 - 09:51 PM EDT / 2021.04.17 0151 UTC
Wind: from the N (010 degrees) at 17 MPH (15 KT):0
Visibility: 10 mile(s):0
Sky conditions: overcast
Temperature: 55.0 F (12.8 C)
Dew Point: 46.0 F (7.8 C)
Relative Humidity: 71%
Pressure (altimeter): 29.99 in. Hg (1015 hPa)
ob: KSJT 170151Z AUTO 01015KT 10SM OVC024 13/08 A2999 RMK AO2 SLP146 T01280078
cycle: 2

Station Type Date Time Source
KSJT TAF 2021/04/16 21:45 UTC NOAA

TAF
AMD KSJT 162043Z 1621/1718 36016G26KT P6SM OVC025
FM171000 36014KT P6SM BKN025

Example: see airport list